sensor_id;sensor_type;location;lat;lon;timestamp;temperature;humidity
11989;DHT22;6054;50.966;7.094;2023-05-10T00:00:37;22.20;61.80
11989;DHT22;6054;50.966;7.094;2023-05-10T00:03:04;22.20;62.00
11989;DHT22;6054;50.966;7.094;2023-05-10T00:05:31;21.90;61.70
11989;DHT22;6054;50.966;7.094;2023-05-10T00:07:59;21.90;61.90
11989;DHT22;6054;50.966;7.094;2023-05-10T00:10:25;21.90;61.60
11989;DHT22;6054;50.966;7.094;2023-05-10T00:12:53;21.90;61.60
11989;DHT22;6054;50.966;7.094;2023-05-10T00:15:19;21.90;61.60
11989;DHT22;6054;50.966;7.094;2023-05-10T00:17:47;21.90;61.50
11989;DHT22;6054;50.966;7.094;2023-05-10T00:20:13;21.90;61.60
11989;DHT22;6054;50.966;7.094;2023-05-10T00:22:40;22.10;61.70
11989;DHT22;6054;50.966;7.094;2023-05-10T00:25:09;21.90;61.40
11989;DHT22;6054;50.966;7.094;2023-05-10T00:27:36;21.90;61.90
11989;DHT22;6054;50.966;7.094;2023-05-10T00:30:03;21.90;61.80
11989;DHT22;6054;50.966;7.094;2023-05-10T00:32:30;21.90;62.20
11989;DHT22;6054;50.966;7.094;2023-05-10T00:34:57;21.90;61.60
11989;DHT22;6054;50.966;7.094;2023-05-10T00:37:24;21.90;61.70
11989;DHT22;6054;50.966;7.094;2023-05-10T00:39:51;21.90;61.80
11989;DHT22;6054;50.966;7.094;2023-05-10T00:42:19;21.90;61.80
11989;DHT22;6054;50.966;7.094;2023-05-10T00:44:46;21.90;61.70
11989;DHT22;6054;50.966;7.094;2023-05-10T00:47:13;22.20;62.30
11989;DHT22;6054;50.966;7.094;2023-05-10T00:49:40;21.90;61.90
11989;DHT22;6054;50.966;7.094;2023-05-10T00:52:07;21.90;61.90
11989;DHT22;6054;50.966;7.094;2023-05-10T00:54:34;21.90;62.10
11989;DHT22;6054;50.966;7.094;2023-05-10T00:57:01;21.90;61.10
11989;DHT22;6054;50.966;7.094;2023-05-10T00:59:30;21.90;61.60
11989;DHT22;6054;50.966;7.094;2023-05-10T01:01:58;21.90;61.70
11989;DHT22;6054;50.966;7.094;2023-05-10T01:04:24;21.90;61.60
11989;DHT22;6054;50.966;7.094;2023-05-10T01:06:52;21.90;61.70
11989;DHT22;6054;50.966;7.094;2023-05-10T01:09:19;21.90;62.10
11989;DHT22;6054;50.966;7.094;2023-05-10T01:11:47;21.90;61.80
11989;DHT22;6054;50.966;7.094;2023-05-10T01:14:15;21.80;61.80
11989;DHT22;6054;50.966;7.094;2023-05-10T01:16:48;22.20;62.40
11989;DHT22;6054;50.966;7.094;2023-05-10T01:19:19;21.90;61.90
11989;DHT22;6054;50.966;7.094;2023-05-10T01:21:53;21.90;62.10
11989;DHT22;6054;50.966;7.094;2023-05-10T01:27:52;21.80;62.00
11989;DHT22;6054;50.966;7.094;2023-05-10T01:30:41;21.80;61.90
11989;DHT22;6054;50.966;7.094;2023-05-10T01:33:18;21.80;62.10
11989;DHT22;6054;50.966;7.094;2023-05-10T01:35:50;21.80;62.20
11989;DHT22;6054;50.966;7.094;2023-05-10T01:38:25;21.80;62.50
11989;DHT22;6054;50.966;7.094;2023-05-10T01:41:01;22.10;62.60
11989;DHT22;6054;50.966;7.094;2023-05-10T01:43:37;22.00;62.40
11989;DHT22;6054;50.966;7.094;2023-05-10T01:46:10;21.80;62.30
11989;DHT22;6054;50.966;7.094;2023-05-10T01:48:47;21.80;63.20
11989;DHT22;6054;50.966;7.094;2023-05-10T01:51:25;21.80;62.50
11989;DHT22;6054;50.966;7.094;2023-05-10T01:53:58;21.80;62.50
11989;DHT22;6054;50.966;7.094;2023-05-10T01:56:26;22.10;63.00
11989;DHT22;6054;50.966;7.094;2023-05-10T01:58:55;21.80;62.60
11989;DHT22;6054;50.966;7.094;2023-05-10T02:01:24;21.80;62.60
11989;DHT22;6054;50.966;7.094;2023-05-10T02:03:53;21.80;62.60
11989;DHT22;6054;50.966;7.094;2023-05-10T02:06:24;21.80;62.40
11989;DHT22;6054;50.966;7.094;2023-05-10T02:08:53;21.80;62.10
11989;DHT22;6054;50.966;7.094;2023-05-10T02:11:20;21.80;61.70
11989;DHT22;6054;50.966;7.094;2023-05-10T02:13:49;21.80;61.30
11989;DHT22;6054;50.966;7.094;2023-05-10T02:16:17;21.70;61.30
11989;DHT22;6054;50.966;7.094;2023-05-10T02:18:45;21.70;61.40
11989;DHT22;6054;50.966;7.094;2023-05-10T02:21:15;21.60;61.10
11989;DHT22;6054;50.966;7.094;2023-05-10T02:23:43;21.60;61.00
11989;DHT22;6054;50.966;7.094;2023-05-10T02:26:11;21.60;61.10
11989;DHT22;6054;50.966;7.094;2023-05-10T02:28:39;21.50;61.00
11989;DHT22;6054;50.966;7.094;2023-05-10T02:31:07;21.50;61.20
11989;DHT22;6054;50.966;7.094;2023-05-10T02:33:35;21.50;61.50
11989;DHT22;6054;50.966;7.094;2023-05-10T02:36:03;21.50;61.40
11989;DHT22;6054;50.966;7.094;2023-05-10T02:38:33;21.50;61.10
11989;DHT22;6054;50.966;7.094;2023-05-10T02:41:01;21.50;61.40
11989;DHT22;6054;50.966;7.094;2023-05-10T02:43:30;21.50;61.50
11989;DHT22;6054;50.966;7.094;2023-05-10T02:45:58;21.40;61.50
11989;DHT22;6054;50.966;7.094;2023-05-10T02:48:25;21.40;61.20
11989;DHT22;6054;50.966;7.094;2023-05-10T02:50:56;21.40;61.30
11989;DHT22;6054;50.966;7.094;2023-05-10T02:53:30;21.40;62.70
11989;DHT22;6054;50.966;7.094;2023-05-10T02:56:00;21.40;62.00
11989;DHT22;6054;50.966;7.094;2023-05-10T02:58:29;21.50;62.20
11989;DHT22;6054;50.966;7.094;2023-05-10T03:00:56;21.50;61.60
11989;DHT22;6054;50.966;7.094;2023-05-10T03:03:22;21.80;61.70
11989;DHT22;6054;50.966;7.094;2023-05-10T03:05:49;21.50;61.60
11989;DHT22;6054;50.966;7.094;2023-05-10T03:08:16;21.50;61.40
11989;DHT22;6054;50.966;7.094;2023-05-10T03:10:51;21.40;61.00
11989;DHT22;6054;50.966;7.094;2023-05-10T03:13:32;21.50;61.60
11989;DHT22;6054;50.966;7.094;2023-05-10T03:16:08;21.50;61.70
11989;DHT22;6054;50.966;7.094;2023-05-10T03:18:42;21.50;61.80
11989;DHT22;6054;50.966;7.094;2023-05-10T03:21:11;21.50;62.90
11989;DHT22;6054;50.966;7.094;2023-05-10T03:23:43;21.50;62.30
11989;DHT22;6054;50.966;7.094;2023-05-10T03:26:11;21.70;62.60
11989;DHT22;6054;50.966;7.094;2023-05-10T03:28:43;21.50;62.60
11989;DHT22;6054;50.966;7.094;2023-05-10T03:31:11;21.50;62.50
11989;DHT22;6054;50.966;7.094;2023-05-10T03:33:46;21.50;62.30
11989;DHT22;6054;50.966;7.094;2023-05-10T03:36:13;21.50;62.60
11989;DHT22;6054;50.966;7.094;2023-05-10T03:38:39;21.80;62.60
11989;DHT22;6054;50.966;7.094;2023-05-10T03:41:06;21.60;62.40
11989;DHT22;6054;50.966;7.094;2023-05-10T03:43:33;21.50;62.00
11989;DHT22;6054;50.966;7.094;2023-05-10T03:46:03;21.50;62.10
11989;DHT22;6054;50.966;7.094;2023-05-10T03:48:30;21.50;62.00
11989;DHT22;6054;50.966;7.094;2023-05-10T03:50:56;21.50;62.10
11989;DHT22;6054;50.966;7.094;2023-05-10T03:53:23;21.50;62.20
11989;DHT22;6054;50.966;7.094;2023-05-10T03:55:50;21.60;62.00
11989;DHT22;6054;50.966;7.094;2023-05-10T03:58:17;21.50;62.30
11989;DHT22;6054;50.966;7.094;2023-05-10T04:00:44;21.50;62.10
11989;DHT22;6054;50.966;7.094;2023-05-10T04:03:12;21.50;62.10
11989;DHT22;6054;50.966;7.094;2023-05-10T04:05:39;21.50;62.00
11989;DHT22;6054;50.966;7.094;2023-05-10T04:08:06;21.50;62.00
11989;DHT22;6054;50.966;7.094;2023-05-10T04:10:33;21.50;61.80
11989;DHT22;6054;50.966;7.094;2023-05-10T04:13:00;21.50;62.00
11989;DHT22;6054;50.966;7.094;2023-05-10T04:15:27;21.50;61.90
11989;DHT22;6054;50.966;7.094;2023-05-10T04:17:54;21.50;61.70
11989;DHT22;6054;50.966;7.094;2023-05-10T04:20:22;21.50;61.50
11989;DHT22;6054;50.966;7.094;2023-05-10T04:22:48;21.70;61.60
11989;DHT22;6054;50.966;7.094;2023-05-10T04:25:15;21.80;62.20
11989;DHT22;6054;50.966;7.094;2023-05-10T04:27:42;21.50;62.10
11989;DHT22;6054;50.966;7.094;2023-05-10T04:30:09;21.50;62.00
11989;DHT22;6054;50.966;7.094;2023-05-10T04:32:36;21.50;62.30
11989;DHT22;6054;50.966;7.094;2023-05-10T04:35:03;21.50;62.00
11989;DHT22;6054;50.966;7.094;2023-05-10T04:37:31;21.50;61.80
11989;DHT22;6054;50.966;7.094;2023-05-10T04:39:58;21.80;62.20
11989;DHT22;6054;50.966;7.094;2023-05-10T04:42:26;21.40;61.70
11989;DHT22;6054;50.966;7.094;2023-05-10T04:44:52;21.50;61.40
11989;DHT22;6054;50.966;7.094;2023-05-10T04:47:19;21.80;61.70
11989;DHT22;6054;50.966;7.094;2023-05-10T04:49:46;21.40;61.80
11989;DHT22;6054;50.966;7.094;2023-05-10T04:52:13;21.30;61.00
11989;DHT22;6054;50.966;7.094;2023-05-10T04:54:42;21.30;62.00
11989;DHT22;6054;50.966;7.094;2023-05-10T04:57:09;21.30;62.00
11989;DHT22;6054;50.966;7.094;2023-05-10T04:59:36;21.60;62.10
11989;DHT22;6054;50.966;7.094;2023-05-10T05:02:03;21.20;61.60
11989;DHT22;6054;50.966;7.094;2023-05-10T05:04:30;21.20;61.60
11989;DHT22;6054;50.966;7.094;2023-05-10T05:06:57;21.20;61.70
11989;DHT22;6054;50.966;7.094;2023-05-10T05:09:23;21.20;61.20
11989;DHT22;6054;50.966;7.094;2023-05-10T05:11:51;21.10;61.30
11989;DHT22;6054;50.966;7.094;2023-05-10T05:14:18;21.10;61.50
11989;DHT22;6054;50.966;7.094;2023-05-10T05:16:46;21.10;61.80
11989;DHT22;6054;50.966;7.094;2023-05-10T05:19:13;21.10;61.50
11989;DHT22;6054;50.966;7.094;2023-05-10T05:21:39;21.10;61.70
11989;DHT22;6054;50.966;7.094;2023-05-10T05:24:06;21.10;61.80
11989;DHT22;6054;50.966;7.094;2023-05-10T05:26:34;21.10;62.20
11989;DHT22;6054;50.966;7.094;2023-05-10T05:29:02;21.10;62.30
11989;DHT22;6054;50.966;7.094;2023-05-10T05:31:29;21.10;62.70
11989;DHT22;6054;50.966;7.094;2023-05-10T05:33:55;21.10;62.60
11989;DHT22;6054;50.966;7.094;2023-05-10T05:36:22;21.10;62.30
11989;DHT22;6054;50.966;7.094;2023-05-10T05:38:49;21.10;62.40
11989;DHT22;6054;50.966;7.094;2023-05-10T05:41:16;21.10;62.30
11989;DHT22;6054;50.966;7.094;2023-05-10T05:43:43;21.10;61.80
11989;DHT22;6054;50.966;7.094;2023-05-10T05:46:11;21.10;61.70
11989;DHT22;6054;50.966;7.094;2023-05-10T05:48:38;21.10;61.60
11989;DHT22;6054;50.966;7.094;2023-05-10T05:51:05;21.00;61.50
11989;DHT22;6054;50.966;7.094;2023-05-10T05:53:31;21.10;61.80
11989;DHT22;6054;50.966;7.094;2023-05-10T05:55:58;21.30;62.10
11989;DHT22;6054;50.966;7.094;2023-05-10T05:58:25;21.10;62.40
11989;DHT22;6054;50.966;7.094;2023-05-10T06:00:52;21.10;62.00
11989;DHT22;6054;50.966;7.094;2023-05-10T06:03:20;21.10;62.20
11989;DHT22;6054;50.966;7.094;2023-05-10T06:05:47;21.30;62.90
11989;DHT22;6054;50.966;7.094;2023-05-10T06:08:14;21.10;62.80
11989;DHT22;6054;50.966;7.094;2023-05-10T06:10:41;21.20;63.10
11989;DHT22;6054;50.966;7.094;2023-05-10T06:13:08;21.30;63.00
11989;DHT22;6054;50.966;7.094;2023-05-10T06:15:35;21.40;62.80
11989;DHT22;6054;50.966;7.094;2023-05-10T06:18:02;21.20;62.90
11989;DHT22;6054;50.966;7.094;2023-05-10T06:20:30;21.30;62.90
11989;DHT22;6054;50.966;7.094;2023-05-10T06:22:57;21.30;62.90
11989;DHT22;6054;50.966;7.094;2023-05-10T06:25:24;21.30;62.50
11989;DHT22;6054;50.966;7.094;2023-05-10T06:27:51;21.30;62.40
11989;DHT22;6054;50.966;7.094;2023-05-10T06:30:23;21.30;62.10
11989;DHT22;6054;50.966;7.094;2023-05-10T06:32:52;21.30;62.60
11989;DHT22;6054;50.966;7.094;2023-05-10T06:35:20;21.30;62.30
11989;DHT22;6054;50.966;7.094;2023-05-10T06:37:48;21.30;61.80
11989;DHT22;6054;50.966;7.094;2023-05-10T06:40:15;21.30;62.30
11989;DHT22;6054;50.966;7.094;2023-05-10T06:42:42;21.30;62.30
11989;DHT22;6054;50.966;7.094;2023-05-10T06:45:10;21.30;61.90
11989;DHT22;6054;50.966;7.094;2023-05-10T06:47:37;21.30;62.10
11989;DHT22;6054;50.966;7.094;2023-05-10T06:50:05;21.30;61.90
11989;DHT22;6054;50.966;7.094;2023-05-10T06:52:31;21.30;62.10
11989;DHT22;6054;50.966;7.094;2023-05-10T06:55:01;21.20;61.50
11989;DHT22;6054;50.966;7.094;2023-05-10T06:57:28;21.20;61.60
11989;DHT22;6054;50.966;7.094;2023-05-10T06:59:55;21.20;61.40
11989;DHT22;6054;50.966;7.094;2023-05-10T07:02:22;21.50;61.40
11989;DHT22;6054;50.966;7.094;2023-05-10T07:04:49;21.20;61.20
11989;DHT22;6054;50.966;7.094;2023-05-10T07:07:17;21.20;61.40
11989;DHT22;6054;50.966;7.094;2023-05-10T07:09:44;21.10;60.00
11989;DHT22;6054;50.966;7.094;2023-05-10T07:12:12;21.10;61.10
11989;DHT22;6054;50.966;7.094;2023-05-10T07:14:39;21.10;61.10
11989;DHT22;6054;50.966;7.094;2023-05-10T07:17:06;21.10;60.70
11989;DHT22;6054;50.966;7.094;2023-05-10T07:19:33;21.10;60.30
11989;DHT22;6054;50.966;7.094;2023-05-10T07:21:59;21.00;60.00
11989;DHT22;6054;50.966;7.094;2023-05-10T07:24:27;21.00;60.00
11989;DHT22;6054;50.966;7.094;2023-05-10T07:26:53;21.00;60.90
11989;DHT22;6054;50.966;7.094;2023-05-10T07:29:21;21.00;61.30
11989;DHT22;6054;50.966;7.094;2023-05-10T07:31:48;20.90;61.00
11989;DHT22;6054;50.966;7.094;2023-05-10T07:34:15;21.00;61.50
11989;DHT22;6054;50.966;7.094;2023-05-10T07:36:42;21.00;61.70
11989;DHT22;6054;50.966;7.094;2023-05-10T07:39:09;21.00;61.80
11989;DHT22;6054;50.966;7.094;2023-05-10T07:41:35;21.00;61.90
11989;DHT22;6054;50.966;7.094;2023-05-10T07:44:04;21.00;62.30
11989;DHT22;6054;50.966;7.094;2023-05-10T07:46:32;21.10;62.00
11989;DHT22;6054;50.966;7.094;2023-05-10T07:48:59;21.00;61.90
11989;DHT22;6054;50.966;7.094;2023-05-10T07:51:26;21.10;62.20
11989;DHT22;6054;50.966;7.094;2023-05-10T07:53:53;21.10;62.10
11989;DHT22;6054;50.966;7.094;2023-05-10T07:56:21;21.10;62.30
11989;DHT22;6054;50.966;7.094;2023-05-10T07:58:48;21.10;62.60
11989;DHT22;6054;50.966;7.094;2023-05-10T08:01:15;21.20;62.80
11989;DHT22;6054;50.966;7.094;2023-05-10T08:03:43;21.50;61.90
11989;DHT22;6054;50.966;7.094;2023-05-10T08:06:12;21.40;61.90
11989;DHT22;6054;50.966;7.094;2023-05-10T08:08:40;21.30;61.90
11989;DHT22;6054;50.966;7.094;2023-05-10T08:11:07;21.40;62.20
11989;DHT22;6054;50.966;7.094;2023-05-10T08:13:34;21.30;62.30
11989;DHT22;6054;50.966;7.094;2023-05-10T08:16:00;21.30;62.20
11989;DHT22;6054;50.966;7.094;2023-05-10T08:18:27;21.30;62.10
11989;DHT22;6054;50.966;7.094;2023-05-10T08:20:55;21.30;62.00
11989;DHT22;6054;50.966;7.094;2023-05-10T08:23:22;21.30;61.30
11989;DHT22;6054;50.966;7.094;2023-05-10T08:25:49;21.40;62.00
11989;DHT22;6054;50.966;7.094;2023-05-10T08:28:16;21.40;62.40
11989;DHT22;6054;50.966;7.094;2023-05-10T08:30:42;21.40;62.20
11989;DHT22;6054;50.966;7.094;2023-05-10T08:33:09;21.40;62.20
11989;DHT22;6054;50.966;7.094;2023-05-10T08:35:36;21.40;62.00
11989;DHT22;6054;50.966;7.094;2023-05-10T08:38:04;21.40;61.90
11989;DHT22;6054;50.966;7.094;2023-05-10T08:40:30;21.40;62.00
11989;DHT22;6054;50.966;7.094;2023-05-10T08:43:03;21.40;62.00
11989;DHT22;6054;50.966;7.094;2023-05-10T08:45:33;21.40;62.20
11989;DHT22;6054;50.966;7.094;2023-05-10T08:48:02;21.40;62.30
11989;DHT22;6054;50.966;7.094;2023-05-10T08:50:31;21.40;62.50
11989;DHT22;6054;50.966;7.094;2023-05-10T08:53:00;21.40;63.00
11989;DHT22;6054;50.966;7.094;2023-05-10T08:55:32;21.40;63.00
11989;DHT22;6054;50.966;7.094;2023-05-10T08:57:59;21.40;62.80
11989;DHT22;6054;50.966;7.094;2023-05-10T09:00:26;21.50;62.70
11989;DHT22;6054;50.966;7.094;2023-05-10T09:02:53;21.50;62.60
11989;DHT22;6054;50.966;7.094;2023-05-10T09:05:20;21.50;62.40
11989;DHT22;6054;50.966;7.094;2023-05-10T09:07:47;21.50;62.20
11989;DHT22;6054;50.966;7.094;2023-05-10T09:10:15;21.50;62.30
11989;DHT22;6054;50.966;7.094;2023-05-10T09:12:44;21.50;62.10
11989;DHT22;6054;50.966;7.094;2023-05-10T09:15:12;21.50;61.80
11989;DHT22;6054;50.966;7.094;2023-05-10T09:17:42;21.40;61.30
11989;DHT22;6054;50.966;7.094;2023-05-10T09:20:10;21.40;61.30
11989;DHT22;6054;50.966;7.094;2023-05-10T09:22:37;21.30;61.00
11989;DHT22;6054;50.966;7.094;2023-05-10T09:25:05;21.30;60.80
11989;DHT22;6054;50.966;7.094;2023-05-10T09:27:32;21.30;61.40
11989;DHT22;6054;50.966;7.094;2023-05-10T09:30:00;21.20;61.30
11989;DHT22;6054;50.966;7.094;2023-05-10T09:32:36;21.10;61.40
11989;DHT22;6054;50.966;7.094;2023-05-10T09:35:08;21.10;62.00
11989;DHT22;6054;50.966;7.094;2023-05-10T09:37:35;21.10;62.10
11989;DHT22;6054;50.966;7.094;2023-05-10T09:40:05;21.10;61.80
11989;DHT22;6054;50.966;7.094;2023-05-10T09:42:33;21.10;62.30
11989;DHT22;6054;50.966;7.094;2023-05-10T09:45:02;21.10;62.50
11989;DHT22;6054;50.966;7.094;2023-05-10T09:47:31;21.10;62.40
11989;DHT22;6054;50.966;7.094;2023-05-10T09:49:58;21.10;61.90
11989;DHT22;6054;50.966;7.094;2023-05-10T09:52:29;21.10;61.80
11989;DHT22;6054;50.966;7.094;2023-05-10T09:54:56;21.10;62.40
11989;DHT22;6054;50.966;7.094;2023-05-10T09:57:24;21.30;62.70
11989;DHT22;6054;50.966;7.094;2023-05-10T09:59:51;21.00;62.70
11989;DHT22;6054;50.966;7.094;2023-05-10T10:02:21;21.00;62.70
11989;DHT22;6054;50.966;7.094;2023-05-10T10:04:55;21.10;62.60
11989;DHT22;6054;50.966;7.094;2023-05-10T10:07:23;21.10;62.00
11989;DHT22;6054;50.966;7.094;2023-05-10T10:09:51;21.10;62.10
11989;DHT22;6054;50.966;7.094;2023-05-10T10:12:18;21.10;61.70
11989;DHT22;6054;50.966;7.094;2023-05-10T10:14:46;21.00;61.60
11989;DHT22;6054;50.966;7.094;2023-05-10T10:17:13;21.00;61.80
11989;DHT22;6054;50.966;7.094;2023-05-10T10:19:42;21.00;61.90
11989;DHT22;6054;50.966;7.094;2023-05-10T10:22:09;21.00;62.10
11989;DHT22;6054;50.966;7.094;2023-05-10T10:24:37;21.00;62.50
11989;DHT22;6054;50.966;7.094;2023-05-10T10:27:12;21.00;62.50
11989;DHT22;6054;50.966;7.094;2023-05-10T10:29:49;21.00;62.90
11989;DHT22;6054;50.966;7.094;2023-05-10T10:32:24;21.10;63.10
11989;DHT22;6054;50.966;7.094;2023-05-10T10:34:54;21.10;63.20
11989;DHT22;6054;50.966;7.094;2023-05-10T10:37:21;21.10;63.50
11989;DHT22;6054;50.966;7.094;2023-05-10T10:39:48;21.20;63.40
11989;DHT22;6054;50.966;7.094;2023-05-10T10:42:44;21.20;63.80
11989;DHT22;6054;50.966;7.094;2023-05-10T10:45:12;21.20;64.30
11989;DHT22;6054;50.966;7.094;2023-05-10T10:47:39;21.30;64.30
11989;DHT22;6054;50.966;7.094;2023-05-10T10:50:09;21.50;64.10
11989;DHT22;6054;50.966;7.094;2023-05-10T10:52:38;21.40;64.00
11989;DHT22;6054;50.966;7.094;2023-05-10T10:55:07;21.50;63.90
11989;DHT22;6054;50.966;7.094;2023-05-10T10:57:44;21.50;63.60
11989;DHT22;6054;50.966;7.094;2023-05-10T11:00:24;21.50;63.30
11989;DHT22;6054;50.966;7.094;2023-05-10T11:02:52;21.60;63.20
11989;DHT22;6054;50.966;7.094;2023-05-10T11:05:25;21.90;62.70
11989;DHT22;6054;50.966;7.094;2023-05-10T11:08:00;21.60;62.70
11989;DHT22;6054;50.966;7.094;2023-05-10T11:10:32;21.70;62.90
11989;DHT22;6054;50.966;7.094;2023-05-10T11:13:00;21.60;62.30
11989;DHT22;6054;50.966;7.094;2023-05-10T11:15:30;21.60;62.80
11989;DHT22;6054;50.966;7.094;2023-05-10T11:17:57;21.70;61.90
11989;DHT22;6054;50.966;7.094;2023-05-10T11:20:27;21.70;62.00
11989;DHT22;6054;50.966;7.094;2023-05-10T11:23:11;21.70;62.60
11989;DHT22;6054;50.966;7.094;2023-05-10T11:25:41;21.70;62.50
11989;DHT22;6054;50.966;7.094;2023-05-10T11:28:09;21.70;62.30
11989;DHT22;6054;50.966;7.094;2023-05-10T11:30:36;22.00;62.20
11989;DHT22;6054;50.966;7.094;2023-05-10T11:33:05;21.70;61.90
11989;DHT22;6054;50.966;7.094;2023-05-10T11:35:37;21.80;61.80
11989;DHT22;6054;50.966;7.094;2023-05-10T11:38:05;21.80;61.90
11989;DHT22;6054;50.966;7.094;2023-05-10T11:40:37;21.80;61.60
11989;DHT22;6054;50.966;7.094;2023-05-10T11:43:08;21.80;61.10
11989;DHT22;6054;50.966;7.094;2023-05-10T11:45:35;22.00;61.30
11989;DHT22;6054;50.966;7.094;2023-05-10T11:48:02;21.70;60.90
11989;DHT22;6054;50.966;7.094;2023-05-10T11:50:29;21.70;60.80
11989;DHT22;6054;50.966;7.094;2023-05-10T11:52:58;21.70;60.90
11989;DHT22;6054;50.966;7.094;2023-05-10T11:55:25;21.70;61.00
11989;DHT22;6054;50.966;7.094;2023-05-10T11:57:53;21.70;60.80
11989;DHT22;6054;50.966;7.094;2023-05-10T12:00:20;21.70;60.80
11989;DHT22;6054;50.966;7.094;2023-05-10T12:02:47;21.80;61.70
11989;DHT22;6054;50.966;7.094;2023-05-10T12:05:14;21.80;61.70
11989;DHT22;6054;50.966;7.094;2023-05-10T12:07:41;21.90;61.80
11989;DHT22;6054;50.966;7.094;2023-05-10T12:10:11;21.90;61.40
11989;DHT22;6054;50.966;7.094;2023-05-10T12:12:40;22.00;61.60
11989;DHT22;6054;50.966;7.094;2023-05-10T12:15:12;22.00;61.30
11989;DHT22;6054;50.966;7.094;2023-05-10T12:17:39;22.10;61.20
11989;DHT22;6054;50.966;7.094;2023-05-10T12:20:16;22.10;61.40
11989;DHT22;6054;50.966;7.094;2023-05-10T12:22:45;22.10;60.40
11989;DHT22;6054;50.966;7.094;2023-05-10T12:25:13;22.10;60.70
11989;DHT22;6054;50.966;7.094;2023-05-10T12:27:40;22.20;60.50
11989;DHT22;6054;50.966;7.094;2023-05-10T12:30:08;22.20;60.60
11989;DHT22;6054;50.966;7.094;2023-05-10T12:32:38;22.20;60.40
11989;DHT22;6054;50.966;7.094;2023-05-10T12:35:06;22.20;60.30
11989;DHT22;6054;50.966;7.094;2023-05-10T12:37:33;22.30;60.70
11989;DHT22;6054;50.966;7.094;2023-05-10T12:40:05;22.30;59.70
11989;DHT22;6054;50.966;7.094;2023-05-10T12:42:35;22.40;59.20
11989;DHT22;6054;50.966;7.094;2023-05-10T12:45:02;22.40;59.00
11989;DHT22;6054;50.966;7.094;2023-05-10T12:47:29;22.40;58.80
11989;DHT22;6054;50.966;7.094;2023-05-10T12:49:55;22.40;59.00
11989;DHT22;6054;50.966;7.094;2023-05-10T12:52:22;22.50;59.80
11989;DHT22;6054;50.966;7.094;2023-05-10T12:54:49;22.90;59.60
11989;DHT22;6054;50.966;7.094;2023-05-10T12:57:16;22.60;58.90
11989;DHT22;6054;50.966;7.094;2023-05-10T12:59:44;22.70;58.30
11989;DHT22;6054;50.966;7.094;2023-05-10T13:02:11;22.70;56.90
11989;DHT22;6054;50.966;7.094;2023-05-10T13:04:38;23.00;57.40
11989;DHT22;6054;50.966;7.094;2023-05-10T13:07:05;22.80;57.60
11989;DHT22;6054;50.966;7.094;2023-05-10T13:09:32;22.80;57.60
11989;DHT22;6054;50.966;7.094;2023-05-10T13:11:59;22.80;57.30
11989;DHT22;6054;50.966;7.094;2023-05-10T13:14:26;22.90;57.10
11989;DHT22;6054;50.966;7.094;2023-05-10T13:16:54;22.90;57.20
11989;DHT22;6054;50.966;7.094;2023-05-10T13:19:21;22.90;56.60
11989;DHT22;6054;50.966;7.094;2023-05-10T13:21:47;22.90;56.90
11989;DHT22;6054;50.966;7.094;2023-05-10T13:24:14;23.00;57.30
11989;DHT22;6054;50.966;7.094;2023-05-10T13:26:42;23.00;57.40
11989;DHT22;6054;50.966;7.094;2023-05-10T13:29:09;23.00;57.10
11989;DHT22;6054;50.966;7.094;2023-05-10T13:31:36;23.20;57.10
11989;DHT22;6054;50.966;7.094;2023-05-10T13:34:05;23.20;56.80
11989;DHT22;6054;50.966;7.094;2023-05-10T13:36:32;23.20;56.10
11989;DHT22;6054;50.966;7.094;2023-05-10T13:38:59;23.20;56.60
11989;DHT22;6054;50.966;7.094;2023-05-10T13:41:27;23.30;56.30
11989;DHT22;6054;50.966;7.094;2023-05-10T13:43:54;23.30;55.80
11989;DHT22;6054;50.966;7.094;2023-05-10T13:46:21;23.40;55.40
11989;DHT22;6054;50.966;7.094;2023-05-10T13:48:48;23.50;54.70
11989;DHT22;6054;50.966;7.094;2023-05-10T13:51:16;23.50;54.80
11989;DHT22;6054;50.966;7.094;2023-05-10T13:53:42;23.60;54.20
11989;DHT22;6054;50.966;7.094;2023-05-10T13:56:09;23.60;54.40
11989;DHT22;6054;50.966;7.094;2023-05-10T13:58:36;23.90;53.90
11989;DHT22;6054;50.966;7.094;2023-05-10T14:01:03;23.60;53.40
11989;DHT22;6054;50.966;7.094;2023-05-10T14:03:30;23.60;52.70
11989;DHT22;6054;50.966;7.094;2023-05-10T14:05:58;23.60;52.80
11989;DHT22;6054;50.966;7.094;2023-05-10T14:08:26;23.60;52.40
11989;DHT22;6054;50.966;7.094;2023-05-10T14:10:53;23.60;52.10
11989;DHT22;6054;50.966;7.094;2023-05-10T14:13:21;23.60;52.10
11989;DHT22;6054;50.966;7.094;2023-05-10T14:15:48;23.60;51.50
11989;DHT22;6054;50.966;7.094;2023-05-10T14:18:15;23.60;51.20
11989;DHT22;6054;50.966;7.094;2023-05-10T14:20:41;23.70;51.40
11989;DHT22;6054;50.966;7.094;2023-05-10T14:23:08;23.70;51.00
11989;DHT22;6054;50.966;7.094;2023-05-10T14:25:36;23.70;50.90
11989;DHT22;6054;50.966;7.094;2023-05-10T14:28:04;23.70;51.40
11989;DHT22;6054;50.966;7.094;2023-05-10T14:30:31;23.80;50.30
11989;DHT22;6054;50.966;7.094;2023-05-10T14:32:58;23.80;50.00
11989;DHT22;6054;50.966;7.094;2023-05-10T14:35:26;23.80;49.70
11989;DHT22;6054;50.966;7.094;2023-05-10T14:37:53;23.80;49.10
11989;DHT22;6054;50.966;7.094;2023-05-10T14:40:20;23.80;49.00
11989;DHT22;6054;50.966;7.094;2023-05-10T14:42:48;23.80;49.00
11989;DHT22;6054;50.966;7.094;2023-05-10T14:45:15;24.00;49.00
11989;DHT22;6054;50.966;7.094;2023-05-10T14:47:42;23.80;49.00
11989;DHT22;6054;50.966;7.094;2023-05-10T14:50:09;23.90;49.00
11989;DHT22;6054;50.966;7.094;2023-05-10T14:52:36;23.80;49.90
11989;DHT22;6054;50.966;7.094;2023-05-10T14:55:03;23.80;49.70
11989;DHT22;6054;50.966;7.094;2023-05-10T14:57:30;23.90;50.30
11989;DHT22;6054;50.966;7.094;2023-05-10T14:59:59;23.90;50.10
11989;DHT22;6054;50.966;7.094;2023-05-10T15:02:25;23.90;50.00
11989;DHT22;6054;50.966;7.094;2023-05-10T15:04:52;23.90;49.90
11989;DHT22;6054;50.966;7.094;2023-05-10T15:07:19;23.90;50.20
11989;DHT22;6054;50.966;7.094;2023-05-10T15:09:46;24.00;50.60
11989;DHT22;6054;50.966;7.094;2023-05-10T15:12:12;24.00;50.00
11989;DHT22;6054;50.966;7.094;2023-05-10T15:14:39;24.10;49.70
11989;DHT22;6054;50.966;7.094;2023-05-10T15:17:07;24.00;49.10
11989;DHT22;6054;50.966;7.094;2023-05-10T15:19:34;24.00;50.10
11989;DHT22;6054;50.966;7.094;2023-05-10T15:22:01;24.00;50.50
11989;DHT22;6054;50.966;7.094;2023-05-10T15:24:28;24.00;51.20
11989;DHT22;6054;50.966;7.094;2023-05-10T15:26:55;24.00;51.20
11989;DHT22;6054;50.966;7.094;2023-05-10T15:29:21;23.90;51.30
11989;DHT22;6054;50.966;7.094;2023-05-10T15:31:49;23.90;52.00
11989;DHT22;6054;50.966;7.094;2023-05-10T15:34:17;23.80;52.90
11989;DHT22;6054;50.966;7.094;2023-05-10T15:36:44;23.70;53.30
11989;DHT22;6054;50.966;7.094;2023-05-10T15:39:11;23.70;53.60
11989;DHT22;6054;50.966;7.094;2023-05-10T15:41:38;23.50;54.10
11989;DHT22;6054;50.966;7.094;2023-05-10T15:44:05;23.80;55.00
11989;DHT22;6054;50.966;7.094;2023-05-10T15:46:31;23.40;55.10
11989;DHT22;6054;50.966;7.094;2023-05-10T15:48:58;23.40;55.70
11989;DHT22;6054;50.966;7.094;2023-05-10T15:51:26;23.30;56.00
11989;DHT22;6054;50.966;7.094;2023-05-10T15:53:53;23.30;56.00